Time;durP1;ratioP1;P1;durP2;ratioP2;P2;SDS_P1;SDS_P2;PMS_P1;PMS_P2;Temp;Humidity;BMP_temperature;BMP_pressure;BME280_temperature;BME280_humidity;BME280_pressure;Samples;Min_cycle;Max_cycle;Signal;HPM_P1;HPM_P2
2022/05/13 00:02:05;;;;;;;3.97;1.85;;;;;;;14.03;46.45;98591.94;4980773;28;20035;-78
2022/05/13 00:04:30;;;;;;;4.55;2.17;;;;;;;13.99;46.64;98584.28;4978357;28;20391;-77
2022/05/13 00:06:56;;;;;;;5.60;2.20;;;;;;;13.94;46.46;98591.84;4982120;28;20018;-77
2022/05/13 00:09:56;;;;;;;4.55;2.28;;;;;;;13.91;46.60;98586.97;4983954;28;20028;-77
2022/05/13 00:12:07;;;;;;;5.75;2.40;;;;;;;13.87;46.90;98581.28;4984955;28;20079;-76
2022/05/13 00:14:32;;;;;;;9.02;4.78;;;;;;;13.80;46.96;98589.19;4986688;28;20034;-76
2022/05/13 00:16:58;;;;;;;9.52;4.55;;;;;;;13.71;47.29;98591.88;4988520;28;20483;-76
2022/05/13 00:19:23;;;;;;;5.28;2.70;;;;;;;13.64;47.34;98592.34;4988601;28;20037;-76
2022/05/13 00:21:48;;;;;;;8.27;2.97;;;;;;;13.57;47.39;98585.63;4987913;28;20036;-77
2022/05/13 00:24:14;;;;;;;7.55;3.17;;;;;;;13.53;47.93;98579.94;4981421;28;20352;-76
2022/05/13 00:26:39;;;;;;;4.65;2.40;;;;;;;13.47;47.65;98570.16;4986167;28;20533;-77
2022/05/13 00:29:05;;;;;;;6.40;2.40;;;;;;;13.43;47.87;98578.25;4986439;28;20466;-76
2022/05/13 00:31:30;;;;;;;5.03;3.10;;;;;;;13.38;48.38;98590.16;4987471;28;20053;-76
2022/05/13 00:33:55;;;;;;;5.53;3.00;;;;;;;13.31;48.07;98589.75;4985881;28;20015;-76
2022/05/13 00:36:21;;;;;;;7.65;3.28;;;;;;;13.28;48.02;98595.09;4986298;28;20029;-76
2022/05/13 00:38:47;;;;;;;7.05;2.22;;;;;;;13.20;48.63;98583.69;4984382;28;20045;-76
2022/05/13 00:41:13;;;;;;;5.80;2.25;;;;;;;13.19;48.94;98582.06;4987868;28;20034;-77
2022/05/13 00:43:51;;;;;;;6.72;3.33;;;;;;;13.19;48.97;98576.53;4981876;28;20107;-76
2022/05/13 00:46:17;;;;;;;5.35;2.63;;;;;;;13.22;49.16;98575.13;4987090;28;20022;-76
2022/05/13 00:48:43;;;;;;;7.75;3.75;;;;;;;13.22;49.46;98572.38;4985384;28;20030;-76
2022/05/13 00:51:11;;;;;;;6.72;3.40;;;;;;;13.23;49.46;98579.50;4979935;28;20057;-77
2022/05/13 00:53:36;;;;;;;6.32;3.63;;;;;;;13.24;49.40;98564.63;4982242;28;20429;-76
2022/05/13 00:56:03;;;;;;;8.05;3.70;;;;;;;13.28;49.47;98560.09;4985133;28;20065;-76
2022/05/13 00:58:29;;;;;;;6.57;3.50;;;;;;;13.33;49.33;98567.44;4986861;28;20113;-77
2022/05/13 01:00:55;;;;;;;5.15;3.63;;;;;;;13.32;49.50;98569.34;4986622;28;20627;-77
2022/05/13 01:03:21;;;;;;;6.90;3.42;;;;;;;13.33;49.87;98568.22;4987055;28;20129;-77
2022/05/13 01:05:53;;;;;;;5.63;3.30;;;;;;;13.32;49.89;98585.09;4982527;28;20495;-77
2022/05/13 01:08:20;;;;;;;6.20;3.05;;;;;;;13.26;50.22;98587.13;4977336;28;20114;-77
2022/05/13 01:10:47;;;;;;;5.75;2.75;;;;;;;13.22;50.20;98586.13;4981084;28;20426;-76
2022/05/13 01:13:20;;;;;;;5.32;2.80;;;;;;;13.22;50.41;98577.88;4982967;28;20042;-77
2022/05/13 01:15:47;;;;;;;5.15;3.15;;;;;;;13.25;50.50;98563.47;4987073;28;20022;-76
2022/05/13 01:18:13;;;;;;;5.85;2.50;;;;;;;13.33;50.36;98570.19;4985333;28;20105;-77
2022/05/13 01:20:46;;;;;;;3.38;2.33;;;;;;;13.36;50.36;98558.53;4987811;28;20076;-76
2022/05/13 01:23:19;;;;;;;6.18;2.80;;;;;;;13.37;50.56;98574.75;4989438;28;20502;-75
2022/05/13 01:25:47;;;;;;;5.30;2.60;;;;;;;13.38;50.39;98564.56;4989485;28;20077;-76
2022/05/13 01:28:20;;;;;;;5.05;2.72;;;;;;;13.38;50.34;98554.34;4987018;28;20061;-76
2022/05/13 01:30:50;;;;;;;7.05;2.50;;;;;;;13.43;51.09;98553.44;4988704;28;20110;-76
2022/05/13 01:33:15;;;;;;;4.20;2.72;;;;;;;13.43;50.81;98550.69;4987936;28;20034;-76
2022/05/13 01:35:44;;;;;;;4.18;2.75;;;;;;;13.43;50.41;98550.69;4989033;28;20022;-76
2022/05/13 01:38:11;;;;;;;5.55;2.83;;;;;;;13.45;50.23;98564.16;4989690;28;20080;-76
2022/05/13 01:40:37;;;;;;;6.75;3.25;;;;;;;13.44;50.53;98565.28;4993021;28;20041;-76
2022/05/13 01:43:03;;;;;;;7.13;2.67;;;;;;;13.46;50.43;98563.00;4995873;28;20037;-76
2022/05/13 01:45:29;;;;;;;4.15;2.95;;;;;;;13.45;51.05;98561.38;4994381;28;20023;-76
2022/05/13 01:47:54;;;;;;;6.25;3.67;;;;;;;13.42;50.92;98564.75;4993826;28;20022;-75
2022/05/13 01:50:22;;;;;;;11.85;6.47;;;;;;;13.38;50.77;98565.34;4993251;28;20103;-76
2022/05/13 01:52:47;;;;;;;9.32;5.30;;;;;;;13.36;51.04;98561.31;4993302;28;20391;-76
2022/05/13 01:55:13;;;;;;;10.40;4.78;;;;;;;13.33;50.98;98557.22;4993316;28;20026;-76
2022/05/13 01:57:38;;;;;;;8.18;4.38;;;;;;;13.25;51.28;98553.28;4993353;28;20062;-76
2022/05/13 02:00:04;;;;;;;6.72;3.60;;;;;;;13.19;51.21;98546.25;4992643;28;20085;-76
2022/05/13 02:03:43;;;;;;;8.30;3.60;;;;;;;13.17;51.26;98555.97;4991486;28;20538;-76
2022/05/13 02:05:15;;;;;;;6.55;3.65;;;;;;;13.14;51.15;98557.38;4993309;28;20043;-76
2022/05/13 02:07:41;;;;;;;8.55;3.22;;;;;;;13.10;51.74;98562.72;4992941;28;20039;-76
2022/05/13 02:10:07;;;;;;;6.43;3.20;;;;;;;13.07;51.38;98563.31;4992633;28;20039;-75
2022/05/13 02:12:32;;;;;;;5.18;2.47;;;;;;;13.02;51.49;98552.44;4993602;28;20030;-76
2022/05/13 02:14:57;;;;;;;5.70;2.70;;;;;;;12.98;51.70;98554.16;4991702;28;20046;-76
2022/05/13 02:17:23;;;;;;;4.90;2.90;;;;;;;12.93;51.96;98540.50;4993142;28;20394;-76
2022/05/13 02:19:48;;;;;;;6.65;3.28;;;;;;;12.87;51.68;98536.25;4992311;28;20046;-76
2022/05/13 02:22:13;;;;;;;4.80;2.50;;;;;;;12.84;52.45;98542.41;4992834;28;20102;-76
2022/05/13 02:24:39;;;;;;;5.40;2.40;;;;;;;12.79;52.38;98537.81;4991772;28;20034;-71
2022/05/13 02:27:05;;;;;;;4.72;2.50;;;;;;;12.75;51.99;98547.78;4992876;28;20034;-75
2022/05/13 02:29:30;;;;;;;6.60;3.40;;;;;;;12.68;52.36;98545.47;4991924;28;20123;-76
2022/05/13 02:31:56;;;;;;;9.65;3.80;;;;;;;12.60;52.92;98548.94;4992830;28;20023;-73
2022/05/13 02:34:21;;;;;;;9.63;3.90;;;;;;;12.54;52.84;98542.75;4993157;28;20042;-79
2022/05/13 02:36:47;;;;;;;9.02;4.10;;;;;;;12.51;52.32;98546.09;4992635;28;20022;-74
2022/05/13 02:39:13;;;;;;;14.38;4.35;;;;;;;12.48;52.88;98555.78;4991921;28;20034;-74
2022/05/13 02:41:38;;;;;;;10.35;3.95;;;;;;;12.44;52.95;98548.44;4992311;28;20478;-74
2022/05/13 02:44:04;;;;;;;11.00;4.47;;;;;;;12.40;52.91;98551.00;4992131;28;20030;-75
2022/05/13 02:46:32;;;;;;;8.77;3.58;;;;;;;12.39;52.53;98538.38;4989130;28;20546;-74
2022/05/13 02:48:58;;;;;;;8.93;3.78;;;;;;;12.37;53.04;98546.13;4987966;28;20050;-74
2022/05/13 02:51:26;;;;;;;8.48;4.43;;;;;;;12.35;53.36;98548.34;4990454;28;20046;-75
2022/05/13 02:53:52;;;;;;;9.65;5.32;;;;;;;12.34;52.69;98549.47;4991383;28;20030;-74
2022/05/13 02:56:17;;;;;;;8.88;4.57;;;;;;;12.31;53.30;98556.38;4991974;28;20038;-75
2022/05/13 02:58:43;;;;;;;12.65;5.50;;;;;;;12.30;53.28;98549.25;4989509;28;20034;-74
2022/05/13 03:01:11;;;;;;;11.13;4.90;;;;;;;12.28;53.26;98542.44;4991482;28;20435;-75
2022/05/13 03:03:39;;;;;;;12.52;4.80;;;;;;;12.27;52.93;98540.81;4992567;28;20089;-75
2022/05/13 03:06:05;;;;;;;15.68;4.60;;;;;;;12.24;53.34;98544.97;4992484;28;20026;-74
2022/05/13 03:08:31;;;;;;;8.55;4.18;;;;;;;12.22;53.14;98558.25;4991641;28;20026;-75
2022/05/13 03:10:56;;;;;;;10.45;5.18;;;;;;;12.20;53.58;98558.53;4993114;28;20783;-75
2022/05/13 03:13:22;;;;;;;11.85;4.95;;;;;;;12.18;53.93;98559.97;4992266;28;20081;-75
2022/05/13 03:15:47;;;;;;;8.38;4.57;;;;;;;12.16;53.80;98559.44;4992129;28;20541;-75
2022/05/13 03:18:13;;;;;;;9.00;4.38;;;;;;;12.14;53.73;98565.25;4991190;28;20126;-74
2022/05/13 03:20:40;;;;;;;8.18;4.85;;;;;;;12.17;53.63;98561.88;4992084;28;20077;-74
2022/05/13 03:23:05;;;;;;;9.25;4.60;;;;;;;12.19;53.96;98553.34;4991901;28;20034;-75
2022/05/13 03:25:31;;;;;;;10.13;4.97;;;;;;;12.24;54.23;98563.41;4990803;28;20034;-74
2022/05/13 03:27:56;;;;;;;11.52;5.18;;;;;;;12.26;54.62;98553.72;4991475;28;20046;-75
2022/05/13 03:30:24;;;;;;;11.82;5.78;;;;;;;12.29;53.66;98547.63;4990648;28;20461;-75
2022/05/13 03:32:51;;;;;;;12.60;5.43;;;;;;;12.32;54.36;98544.25;4992318;28;20368;-75
2022/05/13 03:35:17;;;;;;;17.35;6.40;;;;;;;12.35;54.41;98537.34;4992796;28;20022;-75
2022/05/13 03:37:43;;;;;;;15.15;6.22;;;;;;;12.39;54.29;98543.88;4992095;28;20022;-75
2022/05/13 03:40:10;;;;;;;16.08;6.40;;;;;;;12.43;54.71;98544.06;4992110;28;20076;-75
2022/05/13 03:42:37;;;;;;;16.83;6.70;;;;;;;12.48;54.14;98547.50;4992512;28;20741;-74
2022/05/13 03:45:04;;;;;;;16.00;7.18;;;;;;;12.55;54.54;98543.53;4991386;28;20027;-75
2022/05/13 03:47:30;;;;;;;16.92;6.97;;;;;;;12.59;54.72;98544.56;4991745;28;20030;-75
2022/05/13 03:49:55;;;;;;;13.88;7.15;;;;;;;12.63;55.12;98546.38;4991579;28;20489;-75
2022/05/13 03:52:21;;;;;;;15.10;6.47;;;;;;;12.68;54.98;98553.72;4992131;28;20035;-76
2022/05/13 03:54:47;;;;;;;13.45;7.32;;;;;;;12.74;55.21;98552.50;4991452;28;20034;-75
2022/05/13 03:57:12;;;;;;;21.48;7.22;;;;;;;12.80;54.90;98555.94;4991800;28;20479;-75
2022/05/13 03:59:37;;;;;;;14.55;6.90;;;;;;;12.89;55.28;98550.50;4989693;28;20038;-75
2022/05/13 04:02:04;;;;;;;17.17;7.72;;;;;;;12.94;55.16;98547.66;4991057;28;20485;-75
2022/05/13 04:08:56;;;;;;;14.00;7.38;;;;;;;13.01;55.42;98555.50;4991278;28;20497;-76
2022/05/13 04:09:59;;;;;;;19.58;8.27;;;;;;;13.12;55.12;98559.63;4991162;28;20521;-75
2022/05/13 04:17:56;;;;;;;14.80;8.00;;;;;;;13.19;55.37;98560.03;4988753;28;20754;-74
2022/05/13 04:20:22;;;;;;;17.10;7.78;;;;;;;13.25;55.61;98561.53;4991430;28;20113;-75
2022/05/13 04:22:48;;;;;;;14.45;7.13;;;;;;;13.34;55.96;98563.56;4990673;28;20053;-74
2022/05/13 04:25:13;;;;;;;16.35;7.60;;;;;;;13.43;55.96;98574.66;4991089;28;20053;-74
2022/05/13 04:27:39;;;;;;;21.65;9.32;;;;;;;13.46;56.13;98572.09;4990664;28;20046;-75
2022/05/13 04:30:06;;;;;;;21.13;8.00;;;;;;;13.48;56.04;98572.59;4990780;28;20077;-75
2022/05/13 04:32:32;;;;;;;22.67;7.90;;;;;;;13.54;55.65;98584.31;4990402;28;20560;-75
2022/05/13 04:34:57;;;;;;;14.85;7.30;;;;;;;13.58;55.91;98578.97;4990626;28;20034;-74
2022/05/13 04:37:23;;;;;;;18.83;7.97;;;;;;;13.60;55.23;98577.56;4989414;28;20030;-74
2022/05/13 04:39:52;;;;;;;18.70;7.45;;;;;;;13.64;55.62;98574.97;4990419;28;20037;-74
2022/05/13 04:45:02;;;;;;;15.90;7.32;;;;;;;13.75;55.40;98576.34;4990624;28;20038;-75
2022/05/13 04:50:12;;;;;;;16.17;7.10;;;;;;;13.88;55.23;98582.09;4985197;28;20402;-75
2022/05/13 04:52:38;;;;;;;14.07;7.55;;;;;;;13.96;55.44;98573.06;4990522;28;20030;-75
2022/05/13 04:55:04;;;;;;;14.10;7.85;;;;;;;14.06;55.35;98577.50;4989343;28;20086;-75
2022/05/13 04:57:30;;;;;;;14.55;7.57;;;;;;;14.10;55.11;98582.06;4988523;28;20053;-75
2022/05/13 04:59:55;;;;;;;16.08;7.72;;;;;;;14.12;55.18;98574.28;4971902;28;20052;-75
2022/05/13 05:02:21;;;;;;;14.93;7.10;;;;;;;14.20;55.15;98575.44;4989100;28;20470;-74
2022/05/13 05:04:46;;;;;;;13.60;7.60;;;;;;;14.33;54.92;98576.47;4990833;28;20030;-75
2022/05/13 05:07:11;;;;;;;19.58;8.13;;;;;;;14.48;55.25;98564.19;4990168;28;20113;-74
2022/05/13 05:09:38;;;;;;;15.15;7.75;;;;;;;14.65;55.16;98576.44;4992082;28;20026;-75
2022/05/13 05:12:05;;;;;;;14.80;7.53;;;;;;;14.81;55.04;98563.00;4990916;28;20398;-75
2022/05/13 05:14:32;;;;;;;15.85;7.82;;;;;;;14.93;54.70;98557.69;4989383;28;20080;-74
2022/05/13 05:16:57;;;;;;;18.05;7.57;;;;;;;15.04;54.39;98569.22;4987825;28;20376;-75
2022/05/13 05:19:23;;;;;;;15.82;8.70;;;;;;;15.14;53.89;98565.31;4986731;28;20080;-75
2022/05/13 05:21:48;;;;;;;13.73;8.43;;;;;;;15.22;53.70;98567.28;4986560;28;20034;-75
2022/05/13 05:24:13;;;;;;;15.82;7.97;;;;;;;15.33;53.52;98579.66;4984735;28;20224;-75
2022/05/13 05:26:39;;;;;;;14.35;7.45;;;;;;;15.45;53.39;98575.44;4981509;28;20033;-76
2022/05/13 05:29:04;;;;;;;16.38;6.20;;;;;;;15.58;53.13;98579.16;4981727;28;20403;-75
2022/05/13 05:31:30;;;;;;;14.70;6.18;;;;;;;15.71;52.78;98589.19;4984014;28;20372;-74
2022/05/13 05:33:55;;;;;;;14.48;6.43;;;;;;;15.84;51.72;98581.88;4985741;28;20015;-75
2022/05/13 05:36:21;;;;;;;13.05;6.68;;;;;;;15.92;51.92;98572.75;4986892;28;20483;-74
2022/05/13 05:38:47;;;;;;;16.27;6.97;;;;;;;16.02;52.04;98577.16;4987915;28;20034;-74
2022/05/13 05:41:12;;;;;;;12.13;6.60;;;;;;;16.09;51.99;98575.84;4976340;28;20025;-74
2022/05/13 05:43:38;;;;;;;14.05;7.13;;;;;;;16.11;51.32;98576.28;4982614;28;20019;-75
2022/05/13 05:46:03;;;;;;;14.55;6.65;;;;;;;16.17;51.08;98580.50;4984081;28;20474;-74
2022/05/13 05:48:29;;;;;;;11.13;5.90;;;;;;;16.19;51.04;98575.44;4987819;28;20030;-75
2022/05/13 05:50:58;;;;;;;13.13;6.00;;;;;;;16.22;50.68;98569.25;4988595;28;20038;-75
2022/05/13 05:58:58;;;;;;;17.73;6.30;;;;;;;16.29;50.82;98577.06;4978093;28;20054;-76
2022/05/13 06:01:23;;;;;;;12.02;6.43;;;;;;;16.38;50.65;98577.81;4984335;28;20168;-76
2022/05/13 06:03:49;;;;;;;12.52;6.40;;;;;;;16.48;50.37;98568.34;4986955;28;20514;-76
2022/05/13 06:06:15;;;;;;;12.27;6.28;;;;;;;16.59;50.35;98580.66;4987095;28;20026;-77
2022/05/13 06:08:41;;;;;;;12.55;6.15;;;;;;;16.67;50.30;98568.72;4984812;28;20038;-76
2022/05/13 06:11:09;;;;;;;14.45;6.32;;;;;;;16.84;50.22;98572.56;4990400;28;20038;-77
2022/05/13 06:13:34;;;;;;;15.32;6.60;;;;;;;16.98;49.64;98571.50;4988185;28;20031;-77
2022/05/13 06:16:00;;;;;;;16.52;6.43;;;;;;;17.06;49.63;98571.47;4986277;28;20030;-77
2022/05/13 06:18:26;;;;;;;12.48;5.93;;;;;;;17.17;49.65;98563.56;4977172;28;20418;-77
2022/05/13 06:20:51;;;;;;;14.30;6.40;;;;;;;17.25;49.26;98565.44;4986157;28;20050;-77
2022/05/13 06:23:17;;;;;;;11.00;6.43;;;;;;;17.36;49.31;98565.84;4990233;28;20489;-75
2022/05/13 06:25:42;;;;;;;10.93;5.97;;;;;;;17.48;48.69;98562.31;4991404;28;20141;-75
2022/05/13 06:28:07;;;;;;;12.25;6.20;;;;;;;17.55;48.49;98578.38;4993051;28;20049;-75
2022/05/13 06:30:35;;;;;;;13.02;5.85;;;;;;;17.65;48.22;98566.88;4994034;28;20025;-76
2022/05/13 06:33:01;;;;;;;13.32;6.03;;;;;;;17.76;48.13;98567.25;4993598;28;20081;-75
2022/05/13 06:35:29;;;;;;;15.00;5.70;;;;;;;17.92;48.16;98570.22;4992516;28;20023;-75
2022/05/13 06:37:55;;;;;;;11.68;6.50;;;;;;;18.07;47.76;98571.56;4993318;28;20058;-74
2022/05/13 06:40:24;;;;;;;11.80;5.95;;;;;;;18.20;47.54;98569.63;4991938;28;20064;-73
2022/05/13 06:42:51;;;;;;;10.55;5.82;;;;;;;18.28;46.98;98560.38;4993144;28;20030;-76
2022/05/13 06:45:17;;;;;;;13.10;5.40;;;;;;;18.37;46.92;98556.66;4993245;28;20466;-77
2022/05/13 06:47:42;;;;;;;12.10;5.22;;;;;;;18.48;47.10;98551.47;4992615;28;20026;-73
2022/05/13 06:50:11;;;;;;;11.48;5.38;;;;;;;18.54;46.56;98545.34;4992587;28;20736;-74
2022/05/13 06:52:36;;;;;;;14.80;5.68;;;;;;;18.64;46.65;98538.50;4993132;28;20034;-75
2022/05/13 06:55:02;;;;;;;10.85;5.68;;;;;;;18.71;46.57;98544.28;4993702;28;20040;-74
2022/05/13 06:57:28;;;;;;;13.63;5.97;;;;;;;18.83;46.39;98556.53;4987137;28;20038;-73
2022/05/13 06:59:53;;;;;;;12.68;5.90;;;;;;;18.91;45.83;98547.28;4992652;28;20033;-73
2022/05/13 07:02:19;;;;;;;15.60;6.15;;;;;;;19.00;45.64;98538.84;4991351;28;20034;-73
2022/05/13 07:04:45;;;;;;;14.82;5.95;;;;;;;19.18;46.10;98553.25;4992373;28;20022;-73
2022/05/13 07:07:11;;;;;;;17.42;6.07;;;;;;;19.31;46.01;98560.41;4992307;28;20026;-74
2022/05/13 07:09:37;;;;;;;13.85;6.40;;;;;;;19.47;46.09;98548.53;4990538;28;20031;-74
2022/05/13 07:12:03;;;;;;;14.50;6.85;;;;;;;19.59;46.14;98544.88;4992153;28;20367;-74
2022/05/13 07:14:29;;;;;;;12.73;6.10;;;;;;;19.66;45.94;98553.44;4992396;28;20627;-75
2022/05/13 07:16:55;;;;;;;17.63;7.25;;;;;;;19.70;45.64;98542.41;4992052;28;20027;-72
2022/05/13 07:19:22;;;;;;;17.50;6.78;;;;;;;19.76;46.00;98541.78;4992348;28;20478;-74
2022/05/13 07:21:48;;;;;;;17.58;6.63;;;;;;;19.86;45.51;98551.59;4991986;28;20038;-76
2022/05/13 07:24:13;;;;;;;12.55;5.95;;;;;;;19.91;45.13;98548.56;4989375;28;20026;-76
2022/05/13 07:26:39;;;;;;;11.07;5.57;;;;;;;19.96;45.01;98550.31;4992345;28;20018;-76
2022/05/13 07:29:05;;;;;;;19.67;5.80;;;;;;;19.98;44.09;98559.06;4990970;28;20162;-75
2022/05/13 07:31:31;;;;;;;15.60;6.00;;;;;;;19.98;44.10;98552.72;4988480;28;20022;-76
2022/05/13 07:33:57;;;;;;;14.85;5.63;;;;;;;20.05;44.04;98555.69;4988286;28;20026;-76
2022/05/13 07:36:22;;;;;;;11.45;6.20;;;;;;;20.13;43.90;98549.16;4988887;28;20037;-74
2022/05/13 07:41:31;;;;;;;17.80;6.85;;;;;;;20.09;43.19;98556.59;4984060;28;20456;-75
2022/05/13 07:43:57;;;;;;;14.88;6.68;;;;;;;20.08;42.83;98557.78;4986333;28;20125;-75
2022/05/13 07:46:23;;;;;;;15.88;6.97;;;;;;;20.10;43.03;98554.59;4987133;28;20030;-76
2022/05/13 07:48:48;;;;;;;15.95;7.25;;;;;;;20.20;43.30;98552.09;4988417;28;20106;-75
2022/05/13 07:51:14;;;;;;;18.67;7.15;;;;;;;20.25;43.17;98550.22;4987706;28;20773;-74
2022/05/13 07:53:39;;;;;;;16.92;8.10;;;;;;;20.17;42.79;98549.22;4986508;28;20065;-74
2022/05/13 07:56:06;;;;;;;21.58;8.75;;;;;;;20.02;43.00;98551.63;4990343;28;20046;-75
2022/05/13 07:58:32;;;;;;;18.20;8.73;;;;;;;19.88;42.84;98554.03;4989031;28;20038;-76
2022/05/13 08:00:58;;;;;;;22.38;8.77;;;;;;;19.80;43.15;98553.00;4991363;28;20073;-75
2022/05/13 08:03:26;;;;;;;18.23;8.60;;;;;;;19.79;43.20;98552.22;4991166;28;20084;-74
2022/05/13 08:06:13;;;;;;;17.98;9.45;;;;;;;19.87;43.42;98553.19;4995900;28;20034;-74
2022/05/13 08:08:45;;;;;;;17.88;8.15;;;;;;;19.95;43.45;98550.66;4989555;28;20038;-74
2022/05/13 08:11:14;;;;;;;12.60;7.13;;;;;;;19.99;43.14;98548.78;4989161;28;20054;-75
2022/05/13 08:13:40;;;;;;;12.73;7.47;;;;;;;19.97;42.84;98554.69;4988055;28;20392;-73
2022/05/13 08:16:15;;;;;;;12.63;7.55;;;;;;;19.95;42.76;98553.44;4989661;28;20100;-74
2022/05/13 08:18:41;;;;;;;16.48;7.75;;;;;;;19.95;42.99;98545.09;4988629;28;20034;-74
2022/05/13 08:21:07;;;;;;;13.18;7.15;;;;;;;20.05;43.20;98548.13;4986883;28;20034;-72
2022/05/13 08:23:33;;;;;;;12.85;7.65;;;;;;;20.04;42.96;98551.28;4991588;28;20536;-74
2022/05/13 08:25:58;;;;;;;12.82;7.50;;;;;;;20.03;43.39;98550.47;4988211;28;20116;-75
2022/05/13 08:28:25;;;;;;;13.90;7.00;;;;;;;20.06;42.97;98549.75;4989987;28;20058;-75
2022/05/13 08:30:51;;;;;;;13.05;6.90;;;;;;;20.23;43.62;98554.16;4990181;28;20140;-75
2022/05/13 08:33:17;;;;;;;12.07;7.47;;;;;;;20.44;42.99;98550.31;4987801;28;20076;-74
2022/05/13 08:35:48;;;;;;;14.30;7.05;;;;;;;20.64;42.83;98550.38;4990282;28;20181;-74
2022/05/13 08:38:21;;;;;;;14.30;6.70;;;;;;;20.75;42.29;98548.66;4986253;28;20497;-74
2022/05/13 08:40:50;;;;;;;13.88;6.40;;;;;;;20.81;42.38;98543.63;4988816;28;20069;-74
2022/05/13 08:43:37;;;;;;;12.27;6.38;;;;;;;20.80;41.77;98544.78;4992117;28;20084;-75
2022/05/13 08:46:31;;;;;;;11.05;5.68;;;;;;;20.84;41.79;98542.09;4990988;28;20044;-74
2022/05/13 08:49:02;;;;;;;10.25;5.50;;;;;;;20.91;41.88;98550.63;4986757;28;20157;-74
2022/05/13 08:51:30;;;;;;;15.30;5.07;;;;;;;21.01;41.66;98541.69;4990474;28;20096;-74
2022/05/13 08:54:15;;;;;;;11.87;5.87;;;;;;;21.10;40.75;98536.72;4987741;28;20839;-75
2022/05/13 08:56:45;;;;;;;13.90;5.65;;;;;;;21.20;40.76;98543.69;4989692;28;20042;-75
2022/05/13 08:59:43;;;;;;;13.13;5.70;;;;;;;21.23;40.25;98531.81;4988678;28;20631;-74
2022/05/13 09:02:22;;;;;;;11.80;4.60;;;;;;;21.27;39.08;98538.25;4988099;28;20518;-75
2022/05/13 09:05:26;;;;;;;12.30;5.50;;;;;;;21.35;39.20;98539.25;4987264;28;20026;-74
2022/05/13 09:07:52;;;;;;;11.50;4.45;;;;;;;21.39;39.38;98531.75;4988764;28;20714;-76
2022/05/13 09:10:18;;;;;;;5.47;3.40;;;;;;;21.42;39.29;98521.84;4989705;28;20038;-72
2022/05/13 09:13:09;;;;;;;10.15;4.45;;;;;;;21.39;38.52;98533.72;4988513;28;20022;-74
2022/05/13 09:15:41;;;;;;;9.68;3.80;;;;;;;21.25;37.48;98525.88;4987827;28;20049;-74
2022/05/13 09:18:06;;;;;;;7.63;3.42;;;;;;;21.13;37.93;98521.25;4988508;28;20471;-73
2022/05/13 09:20:56;;;;;;;6.70;3.20;;;;;;;21.06;37.65;98516.31;4990255;28;20039;-76
2022/05/13 09:23:22;;;;;;;5.82;2.60;;;;;;;20.99;37.68;98515.34;4988313;28;20053;-77
2022/05/13 09:25:47;;;;;;;11.13;3.30;;;;;;;20.97;37.55;98510.94;4988169;28;20057;-75
2022/05/13 09:28:14;;;;;;;9.18;1.83;;;;;;;21.04;37.73;98512.28;4986514;28;20089;-75
2022/05/13 09:30:47;;;;;;;4.80;2.10;;;;;;;21.17;37.90;98510.97;4986427;28;20030;-76
2022/05/13 09:33:18;;;;;;;5.90;1.92;;;;;;;21.28;37.87;98497.25;4988511;28;20075;-77
2022/05/13 09:35:43;;;;;;;3.78;1.60;;;;;;;21.32;37.02;98500.91;4986664;28;20038;-76
2022/05/13 09:38:41;;;;;;;4.72;2.10;;;;;;;21.25;35.33;98495.19;4990544;28;20030;-76
2022/05/13 09:41:10;;;;;;;8.18;2.00;;;;;;;21.20;36.11;98487.13;4987485;28;20054;-74
2022/05/13 09:43:40;;;;;;;6.18;1.48;;;;;;;21.24;36.32;98482.41;4989856;28;20115;-80
2022/05/13 09:46:22;;;;;;;4.18;1.52;;;;;;;21.21;36.16;98480.38;4991355;28;20041;-82
2022/05/13 09:48:56;;;;;;;2.92;1.58;;;;;;;21.12;35.90;98475.81;4986764;28;20545;-82
2022/05/13 09:51:35;;;;;;;6.00;1.90;;;;;;;21.00;35.94;98472.38;4985694;28;20054;-84
2022/05/13 09:54:05;;;;;;;3.53;1.40;;;;;;;20.96;36.32;98469.50;4987772;28;20360;-79
2022/05/13 09:56:38;;;;;;;7.07;2.05;;;;;;;20.93;36.43;98459.09;4989451;28;20037;-79
2022/05/13 09:59:12;;;;;;;5.38;1.90;;;;;;;20.93;36.41;98451.53;4988263;28;20053;-83
2022/05/13 10:01:37;;;;;;;7.18;1.80;;;;;;;20.98;36.54;98453.22;4991145;28;20045;-82
2022/05/13 10:04:11;;;;;;;5.25;1.67;;;;;;;21.08;36.93;98451.81;4974171;28;20026;-81
2022/05/13 10:06:38;;;;;;;4.75;1.73;;;;;;;21.24;37.22;98457.31;4992695;28;20492;-81
2022/05/13 10:14:44;;;;;;;5.90;1.30;;;;;;;21.66;37.71;98441.78;4991837;28;20050;-78
2022/05/13 10:17:18;;;;;;;5.57;1.80;;;;;;;21.80;36.95;98438.47;4991728;28;20026;-81
2022/05/13 10:20:10;;;;;;;5.15;1.75;;;;;;;21.86;36.86;98437.75;4991633;28;20038;-77
2022/05/13 10:22:51;;;;;;;3.33;1.40;;;;;;;22.02;36.80;98420.03;4992360;28;20053;-77
2022/05/13 10:25:23;;;;;;;4.60;1.67;;;;;;;22.32;36.12;98427.72;4990302;28;20471;-83
2022/05/13 10:27:54;;;;;;;11.63;1.65;;;;;;;22.55;36.07;98418.47;4986808;28;20525;-77
2022/05/13 10:30:41;;;;;;;5.70;1.98;;;;;;;22.70;36.17;98425.06;4991771;28;20133;-79
2022/05/13 10:33:19;;;;;;;7.80;2.05;;;;;;;22.81;35.61;98422.44;4992223;28;20050;-83
2022/05/13 10:35:57;;;;;;;5.68;1.77;;;;;;;22.94;36.09;98420.19;4990915;28;20049;-82
2022/05/13 10:38:39;;;;;;;3.75;1.85;;;;;;;23.00;35.18;98422.25;4993097;28;20033;-82
2022/05/13 10:41:22;;;;;;;4.28;2.47;;;;;;;23.05;34.55;98413.53;4990735;28;20120;-84
2022/05/13 10:44:14;;;;;;;3.78;1.88;;;;;;;23.15;35.51;98414.03;4988433;28;20033;-79
2022/05/13 10:47:01;;;;;;;7.40;1.90;;;;;;;23.35;37.05;98409.09;4982544;28;20069;-78
2022/05/13 10:49:34;;;;;;;5.85;1.98;;;;;;;23.63;37.14;98408.56;4991413;28;20061;-78
2022/05/13 10:52:14;;;;;;;6.10;1.60;;;;;;;23.83;36.31;98399.94;4991385;28;20018;-81
2022/05/13 10:55:17;;;;;;;4.45;2.00;;;;;;;23.83;35.45;98408.34;4990680;28;20039;-79
2022/05/13 10:57:48;;;;;;;6.15;1.90;;;;;;;23.68;35.40;98412.19;4989812;28;20030;-79
2022/05/13 11:00:19;;;;;;;14.98;2.35;;;;;;;23.57;35.87;98406.50;4991349;28;20184;-79
2022/05/13 11:03:14;;;;;;;4.13;2.00;;;;;;;23.57;36.49;98403.69;5006827;28;20037;-79
2022/05/13 11:06:04;;;;;;;10.07;2.30;;;;;;;23.62;36.44;98400.56;4990660;28;20088;-80
2022/05/13 11:08:51;;;;;;;6.60;2.00;;;;;;;23.65;36.06;98408.19;4991254;28;20049;-80
2022/05/13 11:11:44;;;;;;;3.28;1.50;;;;;;;23.57;35.52;98393.31;4990533;28;20023;-80
2022/05/13 11:14:37;;;;;;;3.50;1.67;;;;;;;23.56;36.33;98386.13;4989673;28;20034;-79
2022/05/13 11:17:15;;;;;;;2.00;1.50;;;;;;;23.63;36.46;98388.97;4989619;28;20134;-80
2022/05/13 11:20:05;;;;;;;4.28;1.77;;;;;;;23.65;36.48;98380.19;4991925;28;20592;-81
2022/05/13 11:22:49;;;;;;;7.63;1.70;;;;;;;23.62;36.12;98376.19;4986752;28;20117;-84
2022/05/13 11:28:28;;;;;;;3.95;1.73;;;;;;;23.78;36.27;98367.50;4990774;28;20197;-82
2022/05/13 11:31:30;;;;;;;4.47;1.55;;;;;;;23.83;35.88;98359.94;4971467;28;20042;-78
2022/05/13 11:34:07;;;;;;;2.70;1.60;;;;;;;23.83;36.26;98355.13;4992389;28;20057;-83
2022/05/13 11:36:45;;;;;;;3.92;1.75;;;;;;;23.87;36.37;98338.34;4992402;28;20027;-81
2022/05/13 11:39:45;;;;;;;4.05;1.70;;;;;;;24.02;36.26;98344.91;4991738;28;20482;-82
2022/05/13 11:42:25;;;;;;;5.75;1.70;;;;;;;24.23;36.46;98330.22;4992193;28;20034;-79
2022/05/13 11:45:14;;;;;;;4.38;1.90;;;;;;;24.32;35.79;98339.06;4992254;28;20109;-79
2022/05/13 11:47:56;;;;;;;12.23;2.30;;;;;;;24.10;35.84;98321.31;4991745;28;20077;-77
2022/05/13 11:50:24;;;;;;;4.38;2.08;;;;;;;23.92;36.09;98308.00;4991971;28;20034;-81
2022/05/13 11:52:53;;;;;;;5.57;2.38;;;;;;;23.82;36.32;98305.13;4991935;28;20039;-85
2022/05/13 11:55:23;;;;;;;4.88;2.53;;;;;;;23.79;36.94;98285.09;4991958;28;20034;-83
2022/05/13 11:57:54;;;;;;;5.10;2.25;;;;;;;24.03;37.26;98268.88;4992193;28;20050;-84
2022/05/13 12:00:33;;;;;;;7.80;2.17;;;;;;;24.21;37.67;98259.75;4991555;28;20029;-85
2022/05/13 12:03:04;;;;;;;8.05;3.22;;;;;;;24.29;37.17;98264.19;4988813;28;20114;-82
2022/05/13 12:05:33;;;;;;;5.28;2.13;;;;;;;24.31;37.16;98270.19;4990444;28;20371;-81
2022/05/13 12:08:07;;;;;;;2.97;1.92;;;;;;;24.35;37.16;98265.41;4990168;28;20130;-85
2022/05/13 12:10:53;;;;;;;4.43;2.30;;;;;;;24.51;37.28;98258.66;4991348;28;20108;-83
2022/05/13 12:13:56;;;;;;;3.72;2.10;;;;;;;24.68;37.18;98257.91;4992339;28;20045;-84